sensor_id;sensor_type;location;lat;lon;timestamp;temperature;humidity
49327;DHT22;35819;44.498;0.166;2022-07-06T00:01:32;19.80;80.80
49327;DHT22;35819;44.498;0.166;2022-07-06T00:03:58;19.80;81.30
49327;DHT22;35819;44.498;0.166;2022-07-06T00:06:23;19.80;82.10
49327;DHT22;35819;44.498;0.166;2022-07-06T00:08:50;19.70;82.60
49327;DHT22;35819;44.498;0.166;2022-07-06T00:11:16;19.70;83.30
49327;DHT22;35819;44.498;0.166;2022-07-06T00:13:42;19.70;84.60
49327;DHT22;35819;44.498;0.166;2022-07-06T00:16:08;19.60;85.30
49327;DHT22;35819;44.498;0.166;2022-07-06T00:18:34;19.50;86.40
49327;DHT22;35819;44.498;0.166;2022-07-06T00:20:59;19.50;87.10
49327;DHT22;35819;44.498;0.166;2022-07-06T00:23:25;19.50;87.40
49327;DHT22;35819;44.498;0.166;2022-07-06T00:25:51;19.40;87.90
49327;DHT22;35819;44.498;0.166;2022-07-06T00:28:17;19.40;88.40
49327;DHT22;35819;44.498;0.166;2022-07-06T00:30:42;19.40;88.90
49327;DHT22;35819;44.498;0.166;2022-07-06T00:33:08;19.40;89.20
49327;DHT22;35819;44.498;0.166;2022-07-06T00:35:34;19.30;89.90
49327;DHT22;35819;44.498;0.166;2022-07-06T00:37:59;19.30;90.20
49327;DHT22;35819;44.498;0.166;2022-07-06T00:40:25;19.30;90.90
49327;DHT22;35819;44.498;0.166;2022-07-06T00:42:52;19.30;91.10
49327;DHT22;35819;44.498;0.166;2022-07-06T00:45:18;19.20;91.60
49327;DHT22;35819;44.498;0.166;2022-07-06T00:47:45;19.20;92.10
49327;DHT22;35819;44.498;0.166;2022-07-06T00:50:13;19.20;92.60
49327;DHT22;35819;44.498;0.166;2022-07-06T00:55:18;19.10;93.70
49327;DHT22;35819;44.498;0.166;2022-07-06T00:57:44;19.10;94.00
49327;DHT22;35819;44.498;0.166;2022-07-06T01:00:12;19.00;94.50
49327;DHT22;35819;44.498;0.166;2022-07-06T01:02:38;19.00;94.80
49327;DHT22;35819;44.498;0.166;2022-07-06T01:05:05;19.00;95.10
49327;DHT22;35819;44.498;0.166;2022-07-06T01:07:31;19.00;95.20
49327;DHT22;35819;44.498;0.166;2022-07-06T01:09:57;19.00;95.40
49327;DHT22;35819;44.498;0.166;2022-07-06T01:12:23;18.90;95.50
49327;DHT22;35819;44.498;0.166;2022-07-06T01:14:49;18.90;95.60
49327;DHT22;35819;44.498;0.166;2022-07-06T01:17:16;18.90;95.60
49327;DHT22;35819;44.498;0.166;2022-07-06T01:19:42;18.90;95.70
49327;DHT22;35819;44.498;0.166;2022-07-06T01:22:11;18.90;95.80
49327;DHT22;35819;44.498;0.166;2022-07-06T01:24:37;18.80;95.90
49327;DHT22;35819;44.498;0.166;2022-07-06T01:27:07;18.80;96.00
49327;DHT22;35819;44.498;0.166;2022-07-06T01:29:33;18.80;96.10
49327;DHT22;35819;44.498;0.166;2022-07-06T01:31:59;18.80;96.20
49327;DHT22;35819;44.498;0.166;2022-07-06T01:34:25;18.80;96.10
49327;DHT22;35819;44.498;0.166;2022-07-06T01:36:51;18.80;95.80
49327;DHT22;35819;44.498;0.166;2022-07-06T01:39:17;18.90;95.70
49327;DHT22;35819;44.498;0.166;2022-07-06T01:41:43;18.90;95.70
49327;DHT22;35819;44.498;0.166;2022-07-06T01:44:09;18.90;95.90
49327;DHT22;35819;44.498;0.166;2022-07-06T01:46:35;18.90;95.90
49327;DHT22;35819;44.498;0.166;2022-07-06T01:49:01;18.90;96.60
49327;DHT22;35819;44.498;0.166;2022-07-06T01:51:26;18.80;96.70
49327;DHT22;35819;44.498;0.166;2022-07-06T01:53:52;18.80;97.20
49327;DHT22;35819;44.498;0.166;2022-07-06T01:56:19;18.70;97.30
49327;DHT22;35819;44.498;0.166;2022-07-06T01:58:46;18.70;98.80
49327;DHT22;35819;44.498;0.166;2022-07-06T02:01:17;18.50;99.90
49327;DHT22;35819;44.498;0.166;2022-07-06T02:03:43;18.30;99.90
49327;DHT22;35819;44.498;0.166;2022-07-06T02:06:09;18.10;99.90
49327;DHT22;35819;44.498;0.166;2022-07-06T02:08:36;18.00;99.90
49327;DHT22;35819;44.498;0.166;2022-07-06T02:11:03;17.90;99.90
49327;DHT22;35819;44.498;0.166;2022-07-06T02:13:29;17.80;99.90
49327;DHT22;35819;44.498;0.166;2022-07-06T02:15:55;17.80;99.90
49327;DHT22;35819;44.498;0.166;2022-07-06T02:18:21;17.80;99.90
49327;DHT22;35819;44.498;0.166;2022-07-06T02:20:46;17.80;99.90
49327;DHT22;35819;44.498;0.166;2022-07-06T02:23:12;17.70;99.90
49327;DHT22;35819;44.498;0.166;2022-07-06T02:25:38;17.70;99.90
49327;DHT22;35819;44.498;0.166;2022-07-06T02:28:04;17.60;99.90
49327;DHT22;35819;44.498;0.166;2022-07-06T02:30:30;17.50;99.90
49327;DHT22;35819;44.498;0.166;2022-07-06T02:32:56;17.50;99.90
49327;DHT22;35819;44.498;0.166;2022-07-06T02:35:21;17.50;99.90
49327;DHT22;35819;44.498;0.166;2022-07-06T02:37:47;17.60;99.90
49327;DHT22;35819;44.498;0.166;2022-07-06T02:40:13;17.70;99.90
49327;DHT22;35819;44.498;0.166;2022-07-06T02:42:39;17.70;99.90
49327;DHT22;35819;44.498;0.166;2022-07-06T02:45:05;17.80;99.90
49327;DHT22;35819;44.498;0.166;2022-07-06T02:47:31;17.90;99.90
49327;DHT22;35819;44.498;0.166;2022-07-06T02:49:57;17.90;99.90
49327;DHT22;35819;44.498;0.166;2022-07-06T02:52:23;17.90;99.90
49327;DHT22;35819;44.498;0.166;2022-07-06T02:54:49;17.80;99.90
49327;DHT22;35819;44.498;0.166;2022-07-06T02:57:15;17.60;99.90
49327;DHT22;35819;44.498;0.166;2022-07-06T02:59:41;17.50;99.90
49327;DHT22;35819;44.498;0.166;2022-07-06T03:02:07;17.30;99.90
49327;DHT22;35819;44.498;0.166;2022-07-06T03:04:34;17.20;99.90
49327;DHT22;35819;44.498;0.166;2022-07-06T03:07:00;17.10;99.90
49327;DHT22;35819;44.498;0.166;2022-07-06T03:09:26;17.00;99.90
49327;DHT22;35819;44.498;0.166;2022-07-06T03:11:52;17.00;99.90
49327;DHT22;35819;44.498;0.166;2022-07-06T03:14:18;17.10;99.90
49327;DHT22;35819;44.498;0.166;2022-07-06T03:16:45;17.20;99.90
49327;DHT22;35819;44.498;0.166;2022-07-06T03:19:11;17.20;99.90
49327;DHT22;35819;44.498;0.166;2022-07-06T03:21:36;17.30;99.90
49327;DHT22;35819;44.498;0.166;2022-07-06T03:24:02;17.30;99.90
49327;DHT22;35819;44.498;0.166;2022-07-06T03:26:28;17.40;99.90
49327;DHT22;35819;44.498;0.166;2022-07-06T03:28:54;17.30;99.90
49327;DHT22;35819;44.498;0.166;2022-07-06T03:31:20;17.20;99.90
49327;DHT22;35819;44.498;0.166;2022-07-06T03:33:45;17.00;99.90
49327;DHT22;35819;44.498;0.166;2022-07-06T03:36:11;16.80;99.90
49327;DHT22;35819;44.498;0.166;2022-07-06T03:38:37;16.70;99.90
49327;DHT22;35819;44.498;0.166;2022-07-06T03:41:03;16.60;99.90
49327;DHT22;35819;44.498;0.166;2022-07-06T03:43:29;16.60;99.90
49327;DHT22;35819;44.498;0.166;2022-07-06T03:45:54;16.60;99.90
49327;DHT22;35819;44.498;0.166;2022-07-06T03:48:20;16.50;99.90
49327;DHT22;35819;44.498;0.166;2022-07-06T03:50:46;16.60;99.90
49327;DHT22;35819;44.498;0.166;2022-07-06T03:53:11;16.50;99.90
49327;DHT22;35819;44.498;0.166;2022-07-06T03:55:37;16.50;99.90
49327;DHT22;35819;44.498;0.166;2022-07-06T03:58:03;16.60;99.90
49327;DHT22;35819;44.498;0.166;2022-07-06T04:00:29;16.50;99.90
49327;DHT22;35819;44.498;0.166;2022-07-06T04:02:54;16.60;99.90
49327;DHT22;35819;44.498;0.166;2022-07-06T04:05:20;16.50;99.90
49327;DHT22;35819;44.498;0.166;2022-07-06T04:07:50;16.60;99.90
49327;DHT22;35819;44.498;0.166;2022-07-06T04:10:16;16.60;99.90
49327;DHT22;35819;44.498;0.166;2022-07-06T04:12:43;16.60;99.90
49327;DHT22;35819;44.498;0.166;2022-07-06T04:15:10;16.60;99.90
49327;DHT22;35819;44.498;0.166;2022-07-06T04:17:36;16.60;99.90
49327;DHT22;35819;44.498;0.166;2022-07-06T04:20:17;16.50;99.90
49327;DHT22;35819;44.498;0.166;2022-07-06T04:22:43;16.40;99.90
49327;DHT22;35819;44.498;0.166;2022-07-06T04:25:09;16.40;99.90
49327;DHT22;35819;44.498;0.166;2022-07-06T04:27:35;16.40;99.90
49327;DHT22;35819;44.498;0.166;2022-07-06T04:30:02;16.40;99.90
49327;DHT22;35819;44.498;0.166;2022-07-06T04:32:28;16.30;99.90
49327;DHT22;35819;44.498;0.166;2022-07-06T04:34:53;16.40;99.90
49327;DHT22;35819;44.498;0.166;2022-07-06T04:37:19;16.40;99.90
49327;DHT22;35819;44.498;0.166;2022-07-06T04:39:45;16.40;99.90
49327;DHT22;35819;44.498;0.166;2022-07-06T04:42:10;16.30;99.90
49327;DHT22;35819;44.498;0.166;2022-07-06T04:44:36;16.30;99.90
49327;DHT22;35819;44.498;0.166;2022-07-06T04:47:02;16.30;99.90
49327;DHT22;35819;44.498;0.166;2022-07-06T04:49:28;16.30;99.90
49327;DHT22;35819;44.498;0.166;2022-07-06T04:51:53;16.30;99.90
49327;DHT22;35819;44.498;0.166;2022-07-06T04:54:20;16.40;99.90
49327;DHT22;35819;44.498;0.166;2022-07-06T04:56:46;16.50;99.90
49327;DHT22;35819;44.498;0.166;2022-07-06T04:59:13;16.50;99.90
49327;DHT22;35819;44.498;0.166;2022-07-06T05:01:38;16.60;99.90
49327;DHT22;35819;44.498;0.166;2022-07-06T05:04:06;16.70;99.90
49327;DHT22;35819;44.498;0.166;2022-07-06T05:06:32;16.80;99.90
49327;DHT22;35819;44.498;0.166;2022-07-06T05:08:57;16.90;99.90
49327;DHT22;35819;44.498;0.166;2022-07-06T05:11:25;17.00;99.90
49327;DHT22;35819;44.498;0.166;2022-07-06T05:13:51;17.10;99.90
49327;DHT22;35819;44.498;0.166;2022-07-06T05:16:17;17.10;99.90
49327;DHT22;35819;44.498;0.166;2022-07-06T05:18:43;17.20;99.90
49327;DHT22;35819;44.498;0.166;2022-07-06T05:21:08;17.20;99.90
49327;DHT22;35819;44.498;0.166;2022-07-06T05:23:34;17.30;99.90
49327;DHT22;35819;44.498;0.166;2022-07-06T05:26:00;17.30;99.90
49327;DHT22;35819;44.498;0.166;2022-07-06T05:28:26;17.40;99.90
49327;DHT22;35819;44.498;0.166;2022-07-06T05:30:52;17.50;99.90
49327;DHT22;35819;44.498;0.166;2022-07-06T05:33:18;17.50;99.90
49327;DHT22;35819;44.498;0.166;2022-07-06T05:35:44;17.50;99.90
49327;DHT22;35819;44.498;0.166;2022-07-06T05:38:09;17.50;99.90
49327;DHT22;35819;44.498;0.166;2022-07-06T05:40:36;17.50;99.90
49327;DHT22;35819;44.498;0.166;2022-07-06T05:43:01;17.50;99.90
49327;DHT22;35819;44.498;0.166;2022-07-06T05:45:27;17.50;99.90
49327;DHT22;35819;44.498;0.166;2022-07-06T05:47:53;17.60;99.90
49327;DHT22;35819;44.498;0.166;2022-07-06T05:50:37;17.60;99.90
49327;DHT22;35819;44.498;0.166;2022-07-06T05:53:04;17.60;99.90
49327;DHT22;35819;44.498;0.166;2022-07-06T05:55:31;17.60;99.90
49327;DHT22;35819;44.498;0.166;2022-07-06T05:57:57;17.70;99.90
49327;DHT22;35819;44.498;0.166;2022-07-06T06:00:24;17.80;99.90
49327;DHT22;35819;44.498;0.166;2022-07-06T06:02:50;17.90;99.90
49327;DHT22;35819;44.498;0.166;2022-07-06T06:05:17;18.00;99.90
49327;DHT22;35819;44.498;0.166;2022-07-06T06:07:43;18.10;99.90
49327;DHT22;35819;44.498;0.166;2022-07-06T06:10:11;18.20;99.90
49327;DHT22;35819;44.498;0.166;2022-07-06T06:12:37;18.30;99.90
49327;DHT22;35819;44.498;0.166;2022-07-06T06:15:04;18.40;99.90
49327;DHT22;35819;44.498;0.166;2022-07-06T06:17:30;18.50;99.90
49327;DHT22;35819;44.498;0.166;2022-07-06T06:19:56;18.60;99.90
49327;DHT22;35819;44.498;0.166;2022-07-06T06:22:22;18.80;99.90
49327;DHT22;35819;44.498;0.166;2022-07-06T06:24:48;19.00;99.90
49327;DHT22;35819;44.498;0.166;2022-07-06T06:27:14;19.10;99.90
49327;DHT22;35819;44.498;0.166;2022-07-06T06:29:39;19.30;99.90
49327;DHT22;35819;44.498;0.166;2022-07-06T06:32:07;19.40;99.90
49327;DHT22;35819;44.498;0.166;2022-07-06T06:34:33;19.60;99.90
49327;DHT22;35819;44.498;0.166;2022-07-06T06:36:58;19.70;99.90
49327;DHT22;35819;44.498;0.166;2022-07-06T06:39:24;19.80;99.90
49327;DHT22;35819;44.498;0.166;2022-07-06T06:42:19;19.90;99.90
49327;DHT22;35819;44.498;0.166;2022-07-06T06:45:33;19.90;99.90
49327;DHT22;35819;44.498;0.166;2022-07-06T06:48:37;20.00;99.90
49327;DHT22;35819;44.498;0.166;2022-07-06T06:51:11;20.10;99.90
49327;DHT22;35819;44.498;0.166;2022-07-06T06:54:04;20.10;99.90
49327;DHT22;35819;44.498;0.166;2022-07-06T06:56:30;20.20;99.90
49327;DHT22;35819;44.498;0.166;2022-07-06T06:58:56;20.20;99.90
49327;DHT22;35819;44.498;0.166;2022-07-06T07:01:22;20.30;99.90
49327;DHT22;35819;44.498;0.166;2022-07-06T07:03:48;20.50;99.90
49327;DHT22;35819;44.498;0.166;2022-07-06T07:06:14;20.60;99.90
49327;DHT22;35819;44.498;0.166;2022-07-06T07:08:40;20.80;99.90
49327;DHT22;35819;44.498;0.166;2022-07-06T07:11:13;20.90;99.90
49327;DHT22;35819;44.498;0.166;2022-07-06T07:13:39;21.10;99.90
49327;DHT22;35819;44.498;0.166;2022-07-06T07:16:05;21.20;99.90
49327;DHT22;35819;44.498;0.166;2022-07-06T07:18:31;21.50;99.90
49327;DHT22;35819;44.498;0.166;2022-07-06T07:20:57;21.60;99.90
49327;DHT22;35819;44.498;0.166;2022-07-06T07:23:22;21.80;99.70
49327;DHT22;35819;44.498;0.166;2022-07-06T07:26:01;21.90;99.90
49327;DHT22;35819;44.498;0.166;2022-07-06T07:28:28;22.00;99.30
49327;DHT22;35819;44.498;0.166;2022-07-06T07:34:57;22.40;98.30
49327;DHT22;35819;44.498;0.166;2022-07-06T07:38:05;22.60;98.00
49327;DHT22;35819;44.498;0.166;2022-07-06T07:40:33;22.90;95.60
49327;DHT22;35819;44.498;0.166;2022-07-06T07:43:01;23.20;95.40
49327;DHT22;35819;44.498;0.166;2022-07-06T07:45:28;23.40;95.30
49327;DHT22;35819;44.498;0.166;2022-07-06T07:48:15;23.60;95.40
49327;DHT22;35819;44.498;0.166;2022-07-06T07:50:41;23.70;95.80
49327;DHT22;35819;44.498;0.166;2022-07-06T07:53:07;23.70;95.30
49327;DHT22;35819;44.498;0.166;2022-07-06T07:55:33;23.70;95.00
49327;DHT22;35819;44.498;0.166;2022-07-06T07:57:59;23.80;93.80
49327;DHT22;35819;44.498;0.166;2022-07-06T08:00:25;23.90;93.60
49327;DHT22;35819;44.498;0.166;2022-07-06T08:02:52;24.00;93.30
49327;DHT22;35819;44.498;0.166;2022-07-06T08:05:17;24.10;93.40
49327;DHT22;35819;44.498;0.166;2022-07-06T08:07:44;24.20;92.60
49327;DHT22;35819;44.498;0.166;2022-07-06T08:10:10;24.30;93.20
49327;DHT22;35819;44.498;0.166;2022-07-06T08:12:36;24.30;93.10
49327;DHT22;35819;44.498;0.166;2022-07-06T08:15:03;24.30;93.80
49327;DHT22;35819;44.498;0.166;2022-07-06T08:17:30;24.30;94.10
49327;DHT22;35819;44.498;0.166;2022-07-06T08:19:56;24.40;93.90
49327;DHT22;35819;44.498;0.166;2022-07-06T08:22:22;24.40;94.00
49327;DHT22;35819;44.498;0.166;2022-07-06T08:24:48;24.40;94.20
49327;DHT22;35819;44.498;0.166;2022-07-06T08:27:14;24.40;94.40
49327;DHT22;35819;44.498;0.166;2022-07-06T08:29:40;24.30;94.40
49327;DHT22;35819;44.498;0.166;2022-07-06T08:32:06;24.20;94.10
49327;DHT22;35819;44.498;0.166;2022-07-06T08:34:33;24.20;93.80
49327;DHT22;35819;44.498;0.166;2022-07-06T08:36:59;24.20;93.70
49327;DHT22;35819;44.498;0.166;2022-07-06T08:39:54;24.20;93.60
49327;DHT22;35819;44.498;0.166;2022-07-06T08:42:43;24.30;92.60
49327;DHT22;35819;44.498;0.166;2022-07-06T08:45:12;24.30;92.20
49327;DHT22;35819;44.498;0.166;2022-07-06T08:47:40;24.40;92.50
49327;DHT22;35819;44.498;0.166;2022-07-06T08:50:07;24.50;92.10
49327;DHT22;35819;44.498;0.166;2022-07-06T08:52:35;24.50;91.30
49327;DHT22;35819;44.498;0.166;2022-07-06T08:55:03;24.50;91.30
49327;DHT22;35819;44.498;0.166;2022-07-06T08:57:34;24.60;90.60
49327;DHT22;35819;44.498;0.166;2022-07-06T09:00:00;24.70;90.60
49327;DHT22;35819;44.498;0.166;2022-07-06T09:02:27;24.70;91.20
49327;DHT22;35819;44.498;0.166;2022-07-06T09:04:58;24.80;91.90
49327;DHT22;35819;44.498;0.166;2022-07-06T09:07:27;24.70;90.80
49327;DHT22;35819;44.498;0.166;2022-07-06T09:09:59;24.80;91.00
49327;DHT22;35819;44.498;0.166;2022-07-06T09:12:28;24.90;90.90
49327;DHT22;35819;44.498;0.166;2022-07-06T09:14:56;24.90;91.20
49327;DHT22;35819;44.498;0.166;2022-07-06T09:17:25;25.00;91.40
49327;DHT22;35819;44.498;0.166;2022-07-06T09:19:51;25.10;91.10
49327;DHT22;35819;44.498;0.166;2022-07-06T09:22:29;25.20;90.80
49327;DHT22;35819;44.498;0.166;2022-07-06T09:25:32;25.30;91.00
49327;DHT22;35819;44.498;0.166;2022-07-06T09:27:59;25.40;91.20
49327;DHT22;35819;44.498;0.166;2022-07-06T09:30:46;25.60;90.90
49327;DHT22;35819;44.498;0.166;2022-07-06T09:33:28;25.80;88.90
49327;DHT22;35819;44.498;0.166;2022-07-06T09:36:46;25.90;87.80
49327;DHT22;35819;44.498;0.166;2022-07-06T09:39:29;26.10;88.20
49327;DHT22;35819;44.498;0.166;2022-07-06T09:42:15;26.30;87.30
49327;DHT22;35819;44.498;0.166;2022-07-06T09:48:33;26.70;86.10
49327;DHT22;35819;44.498;0.166;2022-07-06T09:51:04;27.10;84.30
49327;DHT22;35819;44.498;0.166;2022-07-06T09:53:55;27.40;83.50
49327;DHT22;35819;44.498;0.166;2022-07-06T09:56:37;27.60;82.70
49327;DHT22;35819;44.498;0.166;2022-07-06T09:59:15;27.90;79.50
49327;DHT22;35819;44.498;0.166;2022-07-06T10:01:42;28.10;74.10
49327;DHT22;35819;44.498;0.166;2022-07-06T10:04:14;28.40;70.90
49327;DHT22;35819;44.498;0.166;2022-07-06T10:07:08;28.70;69.80
49327;DHT22;35819;44.498;0.166;2022-07-06T10:09:35;28.90;69.40
49327;DHT22;35819;44.498;0.166;2022-07-06T10:12:23;29.00;66.80
49327;DHT22;35819;44.498;0.166;2022-07-06T10:15:11;29.10;66.00
49327;DHT22;35819;44.498;0.166;2022-07-06T10:17:38;29.40;63.40
49327;DHT22;35819;44.498;0.166;2022-07-06T10:20:06;29.60;62.50
49327;DHT22;35819;44.498;0.166;2022-07-06T10:22:34;29.80;61.90
49327;DHT22;35819;44.498;0.166;2022-07-06T10:25:19;29.90;61.20
49327;DHT22;35819;44.498;0.166;2022-07-06T10:28:08;30.00;60.60
49327;DHT22;35819;44.498;0.166;2022-07-06T10:30:41;30.10;60.50
49327;DHT22;35819;44.498;0.166;2022-07-06T10:33:25;30.20;60.00
49327;DHT22;35819;44.498;0.166;2022-07-06T20:02:39;25.70;55.40
49327;DHT22;35819;44.498;0.166;2022-07-06T20:05:05;25.60;55.90
49327;DHT22;35819;44.498;0.166;2022-07-06T20:07:31;25.50;55.90
49327;DHT22;35819;44.498;0.166;2022-07-06T23:02:25;22.00;68.80
49327;DHT22;35819;44.498;0.166;2022-07-06T23:04:52;21.90;68.90
49327;DHT22;35819;44.498;0.166;2022-07-06T23:38:41;21.40;69.70
